Etusivu
METAR-TAF:

METAR-TAF

Lentoasemat :

Alpnach, Sveitsi

Leveyspiiri: 46-56-19N, Pituuspiiri: 8-17-03E, korkeus merenpinnasta: 440 m

Tämänhetkinen sää

Tämä raportti tehtiin 24 minuuttia sitten, kello 03.20 UTC
Tuuli 3 kn etelästä
Lämpötila 0°C
Kosteus 86%
Ilmanpaine 1024 hPa
Näkyvyys 10 km tai enemmän
Muutamia pilviä 1000 ft:n korkeudessa
Hajonneita pilviä 3200 ft:n korkeudessa

METAR: LSMA 190320Z AUTO 18003KT 9999NDV FEW010 BKN032 M00/M02 Q1024 RMK

Aika: 04:44 (03:44 UTC)


TAF: puuttuu

Säähavainnot ja -ennusteet yli 4000 lentoasemalta (METAR- ja TAF-raportit).

Käytössä olevat sääasemat on merkitty karttaan keltaisilla ja punaisilla pisteillä.

Aseta hiiri pisteen päälle nähdäksesi sääaseman nimen.

Klikkaa sitten nähdäksesi säähavainnot ja -ennusteet.

Kartan vaihtaminen: klikkaa mustalla rastilla varustettuja vihreitä pisteitä, niin voit zoomata sisään; viivalla varustettua vihreää pistettä, niin voit zoomata ulos tai vihreitä nuolia, niin pääset viereisille kartoille.


METAR-TAF: